createdAt,value
2023-05-14T00:01:00.603Z,10.14
2023-05-14T00:03:27.202Z,10.07
2023-05-14T00:05:53.703Z,10.08
2023-05-14T00:08:20.306Z,9.98
2023-05-14T00:10:46.937Z,9.89
2023-05-14T00:13:13.411Z,9.79
2023-05-14T00:15:40.110Z,9.75
2023-05-14T00:18:07.129Z,9.61
2023-05-14T00:20:33.797Z,9.54
2023-05-14T00:23:00.661Z,9.36
2023-05-14T00:25:27.277Z,9.25
2023-05-14T00:27:53.777Z,9.29
2023-05-14T00:30:20.509Z,9.30
2023-05-14T00:32:47.064Z,9.22
2023-05-14T00:35:13.550Z,9.19
2023-05-14T00:37:39.997Z,9.13
2023-05-14T00:40:08.470Z,9.16
2023-05-14T00:42:35.070Z,9.14
2023-05-14T00:45:01.604Z,9.06
2023-05-14T00:47:28.260Z,9.12
2023-05-14T00:49:54.752Z,9.19
2023-05-14T00:52:22.036Z,9.21
2023-05-14T00:54:49.109Z,9.30
2023-05-14T00:57:18.577Z,9.33
2023-05-14T00:59:45.204Z,9.15
2023-05-14T01:02:11.672Z,8.87
2023-05-14T01:04:38.711Z,8.77
2023-05-14T01:07:13.097Z,8.65
2023-05-14T01:09:48.546Z,8.67
2023-05-14T01:12:25.069Z,8.56
2023-05-14T01:15:02.072Z,8.62
2023-05-14T01:17:32.667Z,8.62
2023-05-14T01:20:00.235Z,8.57
2023-05-14T01:22:26.861Z,8.26
2023-05-14T01:24:53.305Z,8.15
2023-05-14T01:27:31.534Z,8.08
2023-05-14T01:30:05.092Z,8.08
2023-05-14T01:32:33.608Z,7.85
2023-05-14T01:35:01.690Z,7.79
2023-05-14T01:37:30.069Z,7.73
2023-05-14T01:39:57.522Z,7.74
2023-05-14T01:42:24.116Z,7.82
2023-05-14T01:44:50.779Z,7.54
2023-05-14T01:47:17.258Z,7.53
2023-05-14T01:49:43.840Z,7.58
2023-05-14T01:52:10.363Z,7.61
2023-05-14T01:54:36.764Z,7.32
2023-05-14T01:57:03.346Z,7.40
2023-05-14T01:59:29.842Z,7.38
2023-05-14T02:01:56.413Z,7.30
2023-05-14T02:04:22.985Z,7.16
2023-05-14T02:06:49.440Z,7.18
2023-05-14T02:09:16.234Z,7.12
2023-05-14T02:11:42.675Z,7.08
2023-05-14T02:14:09.089Z,7.10
2023-05-14T02:16:35.928Z,7.14
2023-05-14T02:19:02.515Z,7.07
2023-05-14T02:21:29.672Z,7.08
2023-05-14T02:23:56.326Z,7.02
2023-05-14T02:26:22.794Z,6.86
2023-05-14T02:28:50.175Z,6.85
2023-05-14T02:31:19.198Z,6.71
2023-05-14T02:33:45.917Z,6.75
2023-05-14T02:36:12.378Z,6.79
2023-05-14T02:38:38.999Z,6.83
2023-05-14T02:41:05.434Z,7.06
2023-05-14T02:43:31.866Z,7.04
2023-05-14T02:45:58.268Z,7.00
2023-05-14T02:48:25.248Z,7.09
2023-05-14T02:50:52.148Z,7.05
2023-05-14T02:53:18.619Z,7.04
2023-05-14T02:55:45.155Z,6.87
2023-05-14T02:58:11.613Z,6.86
2023-05-14T03:00:38.109Z,6.77
2023-05-14T03:03:05.155Z,6.87
2023-05-14T03:05:32.338Z,6.76
2023-05-14T03:07:58.874Z,6.87
2023-05-14T03:10:25.574Z,6.89
2023-05-14T03:12:52.388Z,6.95
2023-05-14T03:15:18.908Z,6.97
2023-05-14T03:17:45.574Z,7.11
2023-05-14T03:20:12.791Z,7.22
2023-05-14T03:22:39.364Z,7.31
2023-05-14T03:25:06.262Z,7.32
2023-05-14T03:27:33.685Z,7.29
2023-05-14T03:30:00.711Z,7.16
2023-05-14T03:32:27.286Z,6.93
2023-05-14T03:34:53.963Z,6.99
2023-05-14T03:37:21.047Z,6.99
2023-05-14T03:39:47.500Z,6.98
2023-05-14T03:42:13.940Z,7.06
2023-05-14T03:44:40.723Z,7.12
2023-05-14T03:47:07.776Z,7.13
2023-05-14T03:49:34.284Z,7.14
2023-05-14T03:52:00.767Z,7.12
2023-05-14T03:54:27.243Z,7.20
2023-05-14T03:56:53.699Z,7.14
2023-05-14T03:59:20.157Z,7.14
2023-05-14T04:01:46.653Z,7.05
2023-05-14T04:04:13.132Z,7.18
2023-05-14T04:06:39.584Z,7.33
2023-05-14T04:09:06.054Z,7.56
2023-05-14T04:11:32.498Z,7.45
2023-05-14T04:13:59.649Z,7.51
2023-05-14T04:16:26.364Z,7.51
2023-05-14T04:18:52.930Z,7.53
2023-05-14T04:21:20.715Z,7.64
2023-05-14T04:23:47.229Z,7.76
2023-05-14T04:26:13.796Z,7.89
2023-05-14T04:28:40.489Z,7.88
2023-05-14T04:31:06.993Z,7.92
2023-05-14T04:33:33.467Z,7.98
2023-05-14T04:35:59.974Z,8.03
2023-05-14T04:38:26.646Z,8.12
2023-05-14T04:40:53.100Z,8.18
2023-05-14T04:43:19.549Z,8.28
2023-05-14T04:45:46.218Z,8.42
2023-05-14T04:48:12.825Z,8.43
2023-05-14T04:50:39.328Z,8.40
2023-05-14T04:53:05.823Z,8.39
2023-05-14T04:55:32.268Z,8.41
2023-05-14T04:57:58.725Z,8.55
2023-05-14T05:00:25.709Z,8.65
2023-05-14T05:02:52.610Z,8.69
2023-05-14T05:05:19.201Z,8.67
2023-05-14T05:07:45.656Z,8.85
2023-05-14T05:10:12.167Z,8.96
2023-05-14T05:12:38.735Z,9.06
2023-05-14T05:15:06.208Z,9.21
2023-05-14T05:17:32.719Z,9.31
2023-05-14T05:19:59.178Z,9.41
2023-05-14T05:22:25.865Z,9.46
2023-05-14T05:24:52.289Z,9.41
2023-05-14T05:27:18.783Z,9.50
2023-05-14T05:29:46.175Z,9.56
2023-05-14T05:32:12.609Z,9.66
2023-05-14T05:34:39.085Z,9.74
2023-05-14T05:37:06.076Z,9.81
2023-05-14T05:39:34.823Z,9.87
2023-05-14T05:42:02.558Z,9.84
2023-05-14T05:44:29.128Z,9.82
2023-05-14T05:46:57.237Z,9.85
2023-05-14T05:49:24.052Z,9.86
2023-05-14T05:51:50.646Z,9.92
2023-05-14T05:54:17.208Z,9.95
2023-05-14T05:56:43.663Z,9.98
2023-05-14T05:59:10.107Z,10.03
2023-05-14T06:01:37.065Z,10.13
2023-05-14T06:04:05.504Z,10.11
2023-05-14T06:06:32.807Z,10.09
2023-05-14T06:08:59.417Z,10.01
2023-05-14T06:11:26.550Z,10.11
2023-05-14T06:13:53.211Z,10.20
2023-05-14T06:16:19.759Z,10.31
2023-05-14T06:18:46.981Z,10.31
2023-05-14T06:21:13.473Z,10.27
2023-05-14T06:23:39.920Z,10.28
2023-05-14T06:26:06.462Z,10.37
2023-05-14T06:28:32.934Z,10.35
2023-05-14T06:30:59.385Z,10.26
2023-05-14T06:33:30.678Z,10.27
2023-05-14T06:36:03.533Z,10.39
2023-05-14T06:38:30.246Z,10.31
2023-05-14T06:40:56.760Z,10.27
2023-05-14T06:43:23.303Z,10.34
2023-05-14T06:45:53.341Z,10.53
2023-05-14T06:48:21.073Z,10.68
2023-05-14T06:50:49.170Z,10.79
2023-05-14T06:53:15.714Z,10.80
2023-05-14T06:55:42.257Z,10.70
2023-05-14T06:58:09.342Z,10.49
2023-05-14T07:00:35.875Z,10.60
2023-05-14T07:03:02.481Z,10.70
2023-05-14T07:05:29.086Z,10.92
2023-05-14T07:07:55.592Z,10.90
2023-05-14T07:10:22.808Z,11.18
2023-05-14T07:12:49.440Z,11.44
2023-05-14T07:15:16.027Z,11.54
2023-05-14T07:17:42.501Z,11.75
2023-05-14T07:20:09.803Z,11.93
2023-05-14T07:22:36.227Z,11.36
2023-05-14T07:25:03.072Z,11.13
2023-05-14T07:27:29.626Z,11.25
2023-05-14T07:29:56.115Z,11.12
2023-05-14T07:32:25.022Z,11.27
2023-05-14T07:34:51.758Z,11.44
2023-05-14T07:37:18.733Z,11.31
2023-05-14T07:39:45.216Z,11.51
2023-05-14T07:42:13.751Z,11.54
2023-05-14T07:44:46.079Z,11.56
2023-05-14T07:47:12.566Z,11.58
2023-05-14T07:49:39.044Z,11.62
2023-05-14T07:52:05.598Z,11.69
2023-05-14T07:54:31.990Z,11.80
2023-05-14T07:56:58.426Z,11.83
2023-05-14T07:59:24.922Z,11.58
2023-05-14T08:01:51.412Z,11.71
2023-05-14T08:04:18.025Z,11.88
2023-05-14T08:06:44.541Z,11.97
2023-05-14T08:09:11.038Z,12.20
2023-05-14T08:11:37.541Z,12.19
2023-05-14T08:14:04.057Z,12.28
2023-05-14T08:16:30.612Z,12.38
2023-05-14T08:18:57.126Z,12.49
2023-05-14T08:21:23.642Z,12.53
2023-05-14T08:23:50.151Z,12.59
2023-05-14T08:26:16.666Z,12.61
2023-05-14T08:28:43.171Z,12.73
2023-05-14T08:31:09.717Z,12.61
2023-05-14T08:33:36.328Z,12.81
2023-05-14T08:36:03.498Z,13.19
2023-05-14T08:38:30.067Z,13.32
2023-05-14T08:41:00.815Z,13.57
2023-05-14T08:43:31.658Z,13.78
2023-05-14T08:46:03.062Z,14.13
2023-05-14T08:48:33.422Z,14.13
2023-05-14T08:51:01.014Z,14.23
2023-05-14T08:53:27.566Z,14.08
2023-05-14T08:55:54.172Z,13.80
2023-05-14T08:58:20.716Z,13.89
2023-05-14T09:00:47.539Z,14.12
2023-05-14T09:03:15.014Z,14.04
2023-05-14T09:05:41.951Z,14.18
2023-05-14T09:08:08.479Z,14.77
2023-05-14T09:10:34.943Z,15.22
2023-05-14T09:13:01.485Z,15.85
2023-05-14T09:15:29.549Z,15.59
2023-05-14T09:17:56.961Z,15.30
2023-05-14T09:20:24.913Z,15.26
2023-05-14T09:22:54.853Z,15.21
2023-05-14T09:25:27.128Z,15.19
2023-05-14T09:27:56.724Z,15.14
2023-05-14T09:30:26.555Z,15.08
2023-05-14T09:32:54.361Z,15.31
2023-05-14T09:35:24.434Z,15.52
2023-05-14T09:37:52.861Z,15.52
2023-05-14T09:40:21.201Z,15.84
2023-05-14T09:42:50.904Z,15.92
2023-05-14T09:45:17.600Z,15.92
2023-05-14T09:47:45.162Z,16.24
2023-05-14T09:50:12.210Z,16.34
2023-05-14T09:52:38.958Z,16.06
2023-05-14T09:55:06.341Z,16.19
2023-05-14T09:57:33.527Z,16.22
2023-05-14T10:00:00.321Z,16.37
2023-05-14T10:02:37.574Z,16.21
2023-05-14T10:05:06.696Z,16.13
2023-05-14T10:07:44.492Z,16.45
2023-05-14T10:10:15.206Z,16.46
2023-05-14T10:12:46.103Z,16.83
2023-05-14T10:15:19.519Z,17.12
2023-05-14T10:17:55.561Z,17.44
2023-05-14T10:20:23.329Z,17.37
2023-05-14T10:22:51.056Z,16.92
2023-05-14T10:25:17.829Z,17.05
2023-05-14T10:27:45.130Z,16.74
2023-05-14T10:30:15.121Z,16.94
2023-05-14T10:32:44.627Z,16.78
2023-05-14T10:35:17.312Z,17.07
2023-05-14T10:37:45.707Z,16.90
2023-05-14T10:40:13.232Z,17.27
2023-05-14T10:42:40.883Z,17.63
2023-05-14T10:45:09.131Z,17.82
2023-05-14T10:47:37.226Z,17.80
2023-05-14T10:50:06.356Z,17.61
2023-05-14T10:52:33.851Z,17.61
2023-05-14T10:55:03.659Z,17.63
2023-05-14T10:57:32.198Z,17.64
2023-05-14T11:00:00.568Z,17.28
2023-05-14T11:02:32.951Z,17.55
2023-05-14T11:05:17.275Z,17.53
2023-05-14T11:07:48.692Z,17.75
2023-05-14T11:10:17.476Z,17.60
2023-05-14T11:12:46.963Z,17.70
2023-05-14T11:15:16.290Z,17.70
2023-05-14T11:17:44.170Z,16.97
2023-05-14T11:20:11.825Z,16.94
2023-05-14T11:22:40.248Z,16.58
2023-05-14T11:25:07.725Z,16.62
2023-05-14T11:27:38.431Z,16.59
2023-05-14T11:30:05.558Z,16.70
2023-05-14T11:32:32.481Z,17.01
2023-05-14T11:34:59.142Z,17.20
2023-05-14T11:37:25.690Z,16.99
2023-05-14T11:39:55.759Z,17.31
2023-05-14T11:42:23.580Z,17.55
2023-05-14T11:44:52.209Z,17.70
2023-05-14T11:47:20.636Z,17.15
2023-05-14T11:49:48.093Z,17.23
2023-05-14T11:52:16.333Z,16.96
2023-05-14T11:54:43.772Z,17.01
2023-05-14T11:57:12.699Z,17.05
2023-05-14T11:59:40.006Z,16.94
2023-05-14T12:02:10.601Z,17.11
2023-05-14T12:04:37.351Z,17.15
2023-05-14T12:07:15.912Z,17.42
2023-05-14T12:09:49.465Z,16.94
2023-05-14T12:12:19.929Z,16.85
2023-05-14T12:14:47.828Z,16.69
2023-05-14T12:17:22.868Z,16.78
2023-05-14T12:19:51.383Z,16.58
2023-05-14T12:22:20.638Z,16.49
2023-05-14T12:24:54.773Z,16.64
2023-05-14T12:27:26.610Z,16.83
2023-05-14T12:30:19.982Z,16.84
2023-05-14T12:32:51.191Z,16.96
2023-05-14T12:35:17.887Z,17.12
2023-05-14T12:37:44.501Z,17.59
2023-05-14T12:40:11.532Z,18.00
2023-05-14T12:42:38.111Z,17.88
2023-05-14T12:45:07.740Z,17.62
2023-05-14T12:47:34.772Z,17.23
2023-05-14T12:50:01.412Z,16.97
2023-05-14T12:52:37.566Z,16.87
2023-05-14T12:55:05.561Z,16.67
2023-05-14T12:57:32.211Z,16.67
2023-05-14T12:59:58.895Z,16.84
2023-05-14T13:02:25.530Z,17.28
2023-05-14T13:04:52.060Z,16.97
2023-05-14T13:07:18.590Z,17.18
2023-05-14T13:09:45.183Z,18.32
2023-05-14T13:12:11.712Z,17.20
2023-05-14T13:14:38.182Z,16.95
2023-05-14T13:17:05.278Z,16.35
2023-05-14T13:19:31.830Z,16.28
2023-05-14T13:21:58.315Z,16.58
2023-05-14T13:24:27.681Z,16.71
2023-05-14T13:26:54.121Z,17.13
2023-05-14T13:29:20.627Z,17.25
2023-05-14T13:31:47.276Z,17.14
2023-05-14T13:34:13.756Z,17.83
2023-05-14T13:36:43.384Z,19.20
2023-05-14T13:39:12.633Z,19.54
2023-05-14T13:41:40.071Z,20.60
2023-05-14T13:44:07.005Z,20.46
2023-05-14T13:46:33.644Z,21.38
2023-05-14T13:49:00.185Z,21.81
2023-05-14T13:51:26.626Z,20.48
2023-05-14T13:56:24.352Z,19.23
2023-05-14T13:58:50.828Z,19.48
2023-05-14T14:01:17.365Z,19.91
2023-05-14T14:03:43.811Z,20.56
2023-05-14T14:06:10.724Z,20.56
2023-05-14T14:08:37.198Z,19.62
2023-05-14T14:11:03.801Z,18.87
2023-05-14T14:13:30.280Z,18.41
2023-05-14T14:15:56.871Z,18.22
2023-05-14T14:18:23.380Z,18.07
2023-05-14T14:20:49.931Z,17.52
2023-05-14T14:23:16.521Z,17.53
2023-05-14T14:25:43.286Z,17.28
2023-05-14T14:28:09.734Z,17.48
2023-05-14T14:30:36.294Z,17.61
2023-05-14T14:33:03.073Z,17.84
2023-05-14T14:35:30.628Z,19.20
2023-05-14T14:37:57.101Z,19.44
2023-05-14T14:40:24.055Z,20.82
2023-05-14T14:42:50.685Z,20.67
2023-05-14T14:45:17.354Z,21.69
2023-05-14T14:47:45.935Z,20.80
2023-05-14T14:50:15.379Z,18.91
2023-05-14T14:52:45.738Z,21.08
2023-05-14T14:55:12.587Z,22.43
2023-05-14T14:57:39.016Z,22.79
2023-05-14T15:00:06.841Z,22.33
2023-05-14T15:02:33.513Z,22.33
2023-05-14T15:05:00.241Z,22.55
2023-05-14T15:07:26.641Z,22.25
2023-05-14T15:09:53.116Z,22.85
2023-05-14T15:12:19.617Z,23.18
2023-05-14T15:14:46.032Z,23.11
2023-05-14T15:17:12.504Z,22.34
2023-05-14T15:19:38.957Z,23.31
2023-05-14T15:22:05.565Z,22.73
2023-05-14T15:24:32.122Z,23.72
2023-05-14T15:26:58.546Z,22.53
2023-05-14T15:29:25.105Z,22.03
2023-05-14T15:31:51.653Z,21.69
2023-05-14T15:34:18.080Z,21.64
2023-05-14T15:36:44.508Z,22.68
2023-05-14T15:39:11.074Z,22.77
2023-05-14T15:41:37.763Z,21.88
2023-05-14T15:44:04.437Z,21.01
2023-05-14T15:46:31.061Z,20.80
2023-05-14T15:48:57.973Z,19.78
2023-05-14T15:51:24.616Z,19.39
2023-05-14T15:53:53.322Z,18.97
2023-05-14T15:56:20.751Z,18.63
2023-05-14T15:58:47.181Z,18.20
2023-05-14T16:01:13.627Z,18.16
2023-05-14T16:03:40.293Z,18.02
2023-05-14T16:06:07.176Z,18.28
2023-05-14T16:08:33.666Z,19.87
2023-05-14T16:11:00.139Z,20.78
2023-05-14T16:13:26.648Z,21.28
2023-05-14T16:15:53.210Z,21.18
2023-05-14T16:18:19.830Z,21.84
2023-05-14T16:20:46.237Z,19.80
2023-05-14T16:23:12.743Z,19.17
2023-05-14T16:25:39.238Z,19.01
2023-05-14T16:28:05.998Z,18.68
2023-05-14T16:30:32.663Z,18.41
2023-05-14T16:32:59.176Z,18.16
2023-05-14T16:35:25.770Z,17.90
2023-05-14T16:37:52.332Z,17.73
2023-05-14T16:40:19.613Z,18.03
2023-05-14T16:42:48.499Z,18.48
2023-05-14T16:45:15.834Z,18.69
2023-05-14T16:47:42.336Z,18.93
2023-05-14T16:50:09.180Z,19.00
2023-05-14T16:52:35.683Z,19.20
2023-05-14T16:55:02.227Z,18.97
2023-05-14T16:57:28.802Z,18.83
2023-05-14T16:59:55.207Z,18.76
2023-05-14T17:02:21.673Z,18.37
2023-05-14T17:04:48.248Z,18.15
2023-05-14T17:07:14.834Z,18.20
2023-05-14T17:09:41.639Z,18.33
2023-05-14T17:12:09.530Z,17.89
2023-05-14T17:14:35.982Z,17.78
2023-05-14T17:17:02.563Z,17.60
2023-05-14T17:19:29.047Z,17.40
2023-05-14T17:21:55.641Z,17.33
2023-05-14T17:24:22.120Z,17.30
2023-05-14T17:26:48.640Z,17.08
2023-05-14T17:29:15.146Z,17.08
2023-05-14T17:31:41.614Z,17.35
2023-05-14T17:34:08.101Z,17.66
2023-05-14T17:36:34.562Z,17.57
2023-05-14T17:39:00.997Z,17.68
2023-05-14T17:41:27.493Z,17.57
2023-05-14T17:43:54.078Z,17.38
2023-05-14T17:46:21.200Z,17.04
2023-05-14T17:48:47.687Z,16.80
2023-05-14T17:51:14.137Z,16.65
2023-05-14T17:53:40.690Z,16.41
2023-05-14T17:56:07.140Z,16.33
2023-05-14T17:58:33.706Z,16.32
2023-05-14T18:01:00.528Z,16.47
2023-05-14T18:03:27.255Z,16.33
2023-05-14T18:05:53.819Z,16.19
2023-05-14T18:08:20.366Z,16.23
2023-05-14T18:10:46.849Z,16.25
2023-05-14T18:13:13.309Z,16.18
2023-05-14T18:15:39.884Z,16.06
2023-05-14T18:18:06.470Z,15.95
2023-05-14T18:20:35.353Z,15.86
2023-05-14T18:23:02.571Z,15.51
2023-05-14T18:25:29.150Z,15.05
2023-05-14T18:27:55.751Z,14.81
2023-05-14T18:30:22.357Z,14.28
2023-05-14T18:32:48.828Z,14.04
2023-05-14T18:35:15.321Z,13.81
2023-05-14T18:37:41.863Z,13.40
2023-05-14T18:40:09.371Z,13.28
2023-05-14T18:42:35.888Z,13.08
2023-05-14T18:45:02.813Z,12.98
2023-05-14T18:47:29.432Z,12.87
2023-05-14T18:49:58.877Z,12.84
2023-05-14T18:52:26.188Z,12.61
2023-05-14T18:54:53.736Z,12.08
2023-05-14T18:57:20.955Z,11.93
2023-05-14T18:59:47.531Z,12.01
2023-05-14T19:02:13.982Z,12.19
2023-05-14T19:04:51.055Z,12.22
2023-05-14T19:07:18.073Z,11.75
2023-05-14T19:09:44.592Z,11.29
2023-05-14T19:12:11.142Z,11.11
2023-05-14T19:14:37.613Z,10.91
2023-05-14T19:17:04.710Z,10.86
2023-05-14T19:19:31.220Z,10.83
2023-05-14T19:21:57.699Z,10.76
2023-05-14T19:24:24.626Z,10.77
2023-05-14T19:26:51.105Z,10.85
2023-05-14T19:29:17.555Z,10.94
2023-05-14T19:31:44.866Z,10.97
2023-05-14T19:34:11.423Z,10.84
2023-05-14T19:36:37.931Z,10.86
2023-05-14T19:39:04.564Z,11.04
2023-05-14T19:41:31.096Z,11.10
2023-05-14T19:43:57.548Z,10.91
2023-05-14T19:46:24.157Z,10.79
2023-05-14T19:48:50.662Z,10.98
2023-05-14T19:51:17.123Z,10.97
2023-05-14T19:53:43.748Z,10.88
2023-05-14T19:56:10.250Z,10.78
2023-05-14T19:58:36.773Z,10.95
2023-05-14T20:01:04.316Z,10.78
2023-05-14T20:03:30.913Z,10.83
2023-05-14T20:05:57.945Z,10.86
2023-05-14T20:08:24.870Z,10.64
2023-05-14T20:10:51.417Z,10.48
2023-05-14T20:13:17.956Z,10.42
2023-05-14T20:15:44.471Z,10.02
2023-05-14T20:18:10.939Z,9.98
2023-05-14T20:20:37.397Z,10.04
2023-05-14T20:23:03.841Z,9.96
2023-05-14T20:25:32.577Z,9.71
2023-05-14T20:28:00.365Z,9.67
2023-05-14T20:30:30.065Z,9.84
2023-05-14T20:32:56.770Z,9.87
2023-05-14T20:35:23.572Z,10.00
2023-05-14T20:37:50.418Z,9.96
2023-05-14T20:40:17.012Z,10.10
2023-05-14T20:42:43.622Z,10.09
2023-05-14T20:45:10.655Z,9.99
2023-05-14T20:47:37.409Z,9.66
2023-05-14T20:50:04.670Z,9.62
2023-05-14T20:52:31.162Z,9.65
2023-05-14T20:54:59.430Z,9.60
2023-05-14T20:57:28.236Z,9.50
2023-05-14T20:59:54.714Z,9.18
2023-05-14T21:02:21.449Z,9.23
2023-05-14T21:04:48.067Z,9.16
2023-05-14T21:07:14.624Z,9.26
2023-05-14T21:09:41.089Z,9.43
2023-05-14T21:12:08.200Z,9.44
2023-05-14T21:14:34.682Z,9.37
2023-05-14T21:17:01.200Z,9.33
2023-05-14T21:19:27.809Z,9.10
2023-05-14T21:21:54.210Z,8.89
2023-05-14T21:24:20.702Z,8.74
2023-05-14T21:26:47.272Z,8.57
2023-05-14T21:29:13.831Z,8.59
2023-05-14T21:31:40.808Z,8.62
2023-05-14T21:34:07.419Z,8.63
2023-05-14T21:36:33.915Z,8.64
2023-05-14T21:39:00.461Z,8.51
2023-05-14T21:41:26.910Z,8.48
2023-05-14T21:43:53.398Z,8.51
2023-05-14T21:46:19.919Z,8.57
2023-05-14T21:48:46.507Z,8.61
2023-05-14T21:51:13.102Z,8.70
2023-05-14T21:53:39.502Z,8.68
2023-05-14T21:56:07.030Z,8.58
2023-05-14T21:58:33.726Z,8.50
2023-05-14T22:01:00.325Z,8.50
2023-05-14T22:03:26.882Z,8.43
2023-05-14T22:05:53.310Z,8.43
2023-05-14T22:08:19.797Z,8.41
2023-05-14T22:10:47.015Z,8.27
2023-05-14T22:13:13.533Z,8.28
2023-05-14T22:15:40.135Z,8.34
2023-05-14T22:18:06.890Z,8.45
2023-05-14T22:20:33.433Z,8.54
2023-05-14T22:22:59.957Z,8.57
2023-05-14T22:25:26.604Z,8.63
2023-05-14T22:27:53.297Z,8.80
2023-05-14T22:30:19.774Z,8.67
2023-05-14T22:32:46.308Z,8.54
2023-05-14T22:35:12.859Z,8.53
2023-05-14T22:37:39.292Z,8.49
2023-05-14T22:40:07.329Z,8.49
2023-05-14T22:42:33.871Z,8.49
2023-05-14T22:45:00.345Z,8.58
2023-05-14T22:47:26.997Z,8.63
2023-05-14T22:49:53.421Z,8.68
2023-05-14T22:52:19.930Z,8.78
2023-05-14T22:54:47.073Z,8.90
2023-05-14T22:57:13.576Z,8.97
2023-05-14T22:59:40.184Z,8.93
2023-05-14T23:02:06.797Z,8.88
2023-05-14T23:04:33.592Z,8.79
2023-05-14T23:07:00.195Z,8.84
2023-05-14T23:09:26.754Z,8.79
2023-05-14T23:11:53.261Z,8.79
2023-05-14T23:14:19.814Z,8.87
2023-05-14T23:16:46.306Z,8.91
2023-05-14T23:19:13.060Z,8.94
2023-05-14T23:21:39.747Z,9.05
2023-05-14T23:24:06.532Z,9.27
2023-05-14T23:26:33.109Z,9.31
2023-05-14T23:28:59.569Z,8.95
2023-05-14T23:31:26.213Z,8.70
2023-05-14T23:33:52.640Z,8.73
2023-05-14T23:36:19.225Z,8.81
2023-05-14T23:38:45.883Z,9.01
2023-05-14T23:41:12.370Z,9.02
2023-05-14T23:43:38.745Z,8.76
2023-05-14T23:46:05.470Z,8.79
2023-05-14T23:48:32.444Z,8.66
2023-05-14T23:50:58.912Z,8.84
2023-05-14T23:53:25.501Z,8.96
2023-05-14T23:55:51.987Z,9.01
2023-05-14T23:58:18.477Z,9.05
